Sheridan, WY

8:52 PM MDT on September 02, 2014 (GMT -0600)
Johnson County | Change Station
CLOSE
Current Station
Airport
Location: Buffalo,
Elevation: 4967 ft
Nearby Weather Stations

Elev 4967 ft 44.38 °N, 106.72 °W | Updated 59 minutes ago

Clear
Clear
63 °F
Feels Like 63 °F
N
8
Wind Variable Wind from WSW

Today
High -- | Low -- °F
--% Chance of Precip.
Yesterday
High -- | Low -- °F
Precip. -- in
6:31 AM 7:42 PM
First Quarter, 57% visible
Pressure 29.69 in
Visibility 10.0 miles
Clouds Clear
Dew Point 43 °F
Humidity 48%
Rainfall 0.00 in
Snow Depth Not available.
UV 0 out of 12
Pollen 7.80 out of 12
Air Quality Not available.
Flu Activity Not available.
METAR KBYG 030153Z AUTO 25007KT 10SM CLR 17/06 A2982 RMK AO2 SLP053 T01720061

More Conditions Fewer Conditions

Pressure 29.69 in
Visibility 10.0 miles
Clouds Clear
Dew Point 43 °F
Humidity 48%
Rainfall 0.00 in
Snow Depth Not available.
UV 0 out of 12
Pollen 7.80 out of 12
Air Quality Not available.
Flu Activity Not available.
METAR KBYG 030153Z AUTO 25007KT 10SM CLR 17/06 A2982 RMK AO2 SLP053 T01720061

More Conditions Fewer Conditions

10-Day Weather Forecast

Almanac

Astronomy

Sep. 02, 2014 Rise Set
Actual Time 6:31 AM MDT 7:42 PM MDT
Civil Twilight 6:01 AM MDT 8:12 PM MDT
Nautical Twilight 5:25 AM MDT 8:48 PM MDT
Astronomical Twilight 4:46 AM MDT 9:26 PM MDT
Moon 2:36 PM MDT (9/2) No Moon Set
Length of Visible Light 14h 11m
Length of Day
13h 11m
Tomorrow will be 3m 0s shorter.
First Quarter, 57% of the Moon is Illuminated
Today
First Quarter
Sep 8
Full
Sep 15
Last Quarter
Sep 24
New
Oct 1
First Quarter

Today's Extremes

State Highs State Lows

Community

WunderPhotos

Upload Photos

1,749,845 photos uploaded!

Nearby

Snow Depth

Station Depth Elevation
Casper Mountain 0 in 7850 ft
Gunsight Pass 4 in 9820 ft
Thumb Divide 0 in 7980 ft
Gros Ventre Summit 0 in 8750 ft
Big Sandy Opening 0 in 9080 ft

Earthquake Activity

City Distance Mag. Time & Date
No recent earthquake activity has been reported nearby.
Minimum magnitude displayed is 2.5.

Coastal Water Temperatures

Place Temperature
No Stations Reporting

Nearby Weather Stations